Time;durP1;ratioP1;P1;durP2;ratioP2;P2;SDS_P1;SDS_P2;PMS_P1;PMS_P2;Temp;Humidity;BMP_temperature;BMP_pressure;BME280_temperature;BME280_humidity;BME280_pressure;Samples;Min_cycle;Max_cycle;Signal;HPM_P1;HPM_P2
2021/12/16 00:01:40;;;;;;;;;;;21.50;33.10;;;;;;490137;241;1006;-47
2021/12/16 00:01:47;;;;;;;;;;;21.50;33.10;;;;;;489536;241;1872;-46
2021/12/16 00:06:48;;;;;;;;;;;21.40;33.10;;;;;;489698;241;1045;-46
2021/12/16 00:08:32;;;;;;;;;;;21.40;33.20;;;;;;490162;242;2074;-46
2021/12/16 00:10:31;;;;;;;;;;;21.40;33.10;;;;;;489814;242;2382;-46
2021/12/16 00:20:13;;;;;;;;;;;21.40;33.20;;;;;;486677;242;1182;-46
2021/12/16 00:31:23;;;;;;;;;;;21.40;33.20;;;;;;489597;241;1320;-46
2021/12/16 00:33:33;;;;;;;;;;;21.30;33.20;;;;;;489675;242;2280;-46
2021/12/16 00:35:23;;;;;;;;;;;21.40;33.20;;;;;;489860;242;2157;-46
2021/12/16 00:37:25;;;;;;;;;;;21.40;33.20;;;;;;489962;242;2200;-46
2021/12/16 00:39:26;;;;;;;;;;;21.40;33.20;;;;;;489692;242;1207;-46
2021/12/16 00:41:27;;;;;;;;;;;21.30;33.20;;;;;;489490;242;1524;-47
2021/12/16 00:43:35;;;;;;;;;;;21.30;33.20;;;;;;489894;242;1129;-46
2021/12/16 00:45:35;;;;;;;;;;;21.40;33.30;;;;;;489921;242;2146;-46
2021/12/16 00:47:47;;;;;;;;;;;21.40;33.20;;;;;;489618;242;2662;-46
2021/12/16 00:49:40;;;;;;;;;;;21.30;33.20;;;;;;490073;242;1372;-47
2021/12/16 00:54:10;;;;;;;;;;;21.40;33.20;;;;;;489779;241;1062;-46
2021/12/16 00:56:09;;;;;;;;;;;21.40;33.20;;;;;;490086;242;1433;-46
2021/12/16 00:58:11;;;;;;;;;;;21.40;33.20;;;;;;489983;242;2185;-46
2021/12/16 01:00:14;;;;;;;;;;;21.30;33.20;;;;;;489760;242;996;-47
2021/12/16 01:02:25;;;;;;;;;;;21.30;33.20;;;;;;489737;242;2147;-47
2021/12/16 01:04:49;;;;;;;;;;;21.30;33.20;;;;;;489845;242;2260;-46
2021/12/16 01:06:46;;;;;;;;;;;21.40;33.30;;;;;;490017;242;1498;-46
2021/12/16 01:09:07;;;;;;;;;;;21.30;33.20;;;;;;489966;242;1853;-46
2021/12/16 01:34:17;;;;;;;;;;;21.30;33.20;;;;;;489710;241;1027;-47
2021/12/16 01:36:24;;;;;;;;;;;21.30;33.30;;;;;;490286;242;2618;-46
2021/12/16 01:38:47;;;;;;;;;;;21.30;33.30;;;;;;489970;242;2185;-46
2021/12/16 01:41:02;;;;;;;;;;;21.30;33.20;;;;;;490656;242;1490;-46
2021/12/16 01:47:45;;;;;;;;;;;21.30;33.20;;;;;;489641;241;1231;-46
2021/12/16 01:49:49;;;;;;;;;;;21.30;33.30;;;;;;489869;242;2081;-47
2021/12/16 01:52:01;;;;;;;;;;;21.20;33.40;;;;;;490160;242;2381;-46
2021/12/16 01:54:31;;;;;;;;;;;21.20;33.30;;;;;;489874;242;2329;-47
2021/12/16 01:56:25;;;;;;;;;;;21.30;33.30;;;;;;490459;242;1967;-47
2021/12/16 01:58:20;;;;;;;;;;;21.30;33.20;;;;;;490298;242;2154;-46
2021/12/16 02:00:24;;;;;;;;;;;21.30;33.20;;;;;;489643;242;2126;-47
2021/12/16 02:02:33;;;;;;;;;;;21.20;33.30;;;;;;489822;242;2143;-46
2021/12/16 02:04:28;;;;;;;;;;;21.20;33.30;;;;;;489988;242;2432;-47
2021/12/16 02:06:40;;;;;;;;;;;21.20;33.30;;;;;;489780;242;2188;-47
2021/12/16 02:08:32;;;;;;;;;;;21.20;33.30;;;;;;490074;242;2148;-46
2021/12/16 02:10:33;;;;;;;;;;;21.20;33.20;;;;;;489773;242;1993;-47
2021/12/16 02:12:49;;;;;;;;;;;21.20;33.30;;;;;;490123;242;2363;-46
2021/12/16 02:28:48;;;;;;;;;;;21.20;33.30;;;;;;489665;241;1060;-46
2021/12/16 02:33:21;;;;;;;;;;;21.20;33.30;;;;;;489641;242;1217;-46
2021/12/16 02:35:29;;;;;;;;;;;21.20;33.30;;;;;;490154;242;2156;-47
2021/12/16 02:37:31;;;;;;;;;;;21.20;33.30;;;;;;489733;242;2323;-46
2021/12/16 02:39:27;;;;;;;;;;;21.20;33.30;;;;;;489782;242;2060;-47
2021/12/16 02:41:28;;;;;;;;;;;21.20;33.40;;;;;;489852;242;1115;-46
2021/12/16 02:43:56;;;;;;;;;;;21.20;33.30;;;;;;490048;242;1190;-46
2021/12/16 02:50:26;;;;;;;;;;;21.20;33.40;;;;;;489643;241;1171;-47
2021/12/16 02:52:28;;;;;;;;;;;21.10;33.40;;;;;;490106;242;1177;-46
2021/12/16 02:54:29;;;;;;;;;;;21.10;33.50;;;;;;489866;242;1092;-46
2021/12/16 02:56:30;;;;;;;;;;;21.20;33.40;;;;;;489706;242;1398;-46
2021/12/16 02:58:32;;;;;;;;;;;21.10;33.40;;;;;;490130;242;2118;-46
2021/12/16 03:00:33;;;;;;;;;;;21.20;33.40;;;;;;489735;242;1495;-46
2021/12/16 03:02:34;;;;;;;;;;;21.30;33.20;;;;;;489646;242;1188;-46
2021/12/16 03:04:36;;;;;;;;;;;21.50;32.90;;;;;;490069;242;1151;-47
2021/12/16 03:06:38;;;;;;;;;;;21.70;32.50;;;;;;490100;242;1220;-47
2021/12/16 03:08:38;;;;;;;;;;;21.90;32.30;;;;;;489704;242;1817;-46
2021/12/16 03:11:05;;;;;;;;;;;22.00;32.10;;;;;;489649;242;1315;-47
2021/12/16 03:13:05;;;;;;;;;;;22.10;31.90;;;;;;489725;242;1771;-47
2021/12/16 03:15:11;;;;;;;;;;;22.20;31.70;;;;;;489940;242;2173;-47
2021/12/16 03:17:14;;;;;;;;;;;22.30;31.60;;;;;;489746;242;2531;-46
2021/12/16 03:19:17;;;;;;;;;;;22.20;31.70;;;;;;489848;242;2240;-46
2021/12/16 03:21:17;;;;;;;;;;;22.10;31.90;;;;;;489613;242;1298;-47
2021/12/16 03:23:29;;;;;;;;;;;21.90;32.10;;;;;;489704;242;2853;-46
2021/12/16 03:25:30;;;;;;;;;;;21.80;32.30;;;;;;489918;242;1371;-46
2021/12/16 03:27:44;;;;;;;;;;;21.70;32.40;;;;;;489798;242;1854;-46
2021/12/16 03:29:58;;;;;;;;;;;21.60;32.60;;;;;;490344;242;2060;-46
2021/12/16 03:31:58;;;;;;;;;;;21.50;32.70;;;;;;490379;242;2245;-46
2021/12/16 03:34:10;;;;;;;;;;;21.50;32.80;;;;;;489883;242;2170;-46
2021/12/16 03:36:06;;;;;;;;;;;21.40;32.90;;;;;;490214;242;1495;-47
2021/12/16 03:38:05;;;;;;;;;;;21.40;33.00;;;;;;489669;242;2185;-47
2021/12/16 03:40:07;;;;;;;;;;;21.40;33.00;;;;;;490133;242;1045;-46
2021/12/16 03:42:08;;;;;;;;;;;21.30;33.00;;;;;;489637;242;1164;-47
2021/12/16 03:44:11;;;;;;;;;;;21.30;33.00;;;;;;489914;242;1220;-46
2021/12/16 03:46:26;;;;;;;;;;;21.20;33.10;;;;;;489577;242;2356;-46
2021/12/16 03:48:27;;;;;;;;;;;21.20;33.20;;;;;;490055;242;1190;-46
2021/12/16 03:50:28;;;;;;;;;;;21.30;33.20;;;;;;489687;242;1467;-47
2021/12/16 03:52:30;;;;;;;;;;;21.30;33.10;;;;;;489593;242;1240;-46
2021/12/16 03:54:31;;;;;;;;;;;21.30;33.10;;;;;;489640;242;1204;-46
2021/12/16 03:56:32;;;;;;;;;;;21.20;33.10;;;;;;489496;242;1299;-47
2021/12/16 03:58:34;;;;;;;;;;;21.20;33.20;;;;;;489618;242;2130;-47
2021/12/16 04:00:35;;;;;;;;;;;21.20;33.20;;;;;;489598;242;1227;-46
2021/12/16 04:02:36;;;;;;;;;;;21.20;33.20;;;;;;489630;242;1297;-46
2021/12/16 04:04:38;;;;;;;;;;;21.20;33.30;;;;;;489658;242;1076;-47
2021/12/16 04:06:39;;;;;;;;;;;21.30;33.10;;;;;;489620;242;1152;-47
2021/12/16 04:08:40;;;;;;;;;;;21.50;32.80;;;;;;490004;242;1045;-47
2021/12/16 04:10:43;;;;;;;;;;;21.70;32.40;;;;;;489579;242;1379;-47
2021/12/16 04:12:43;;;;;;;;;;;21.90;32.10;;;;;;489665;242;2121;-47
2021/12/16 04:14:44;;;;;;;;;;;22.00;31.90;;;;;;489637;242;1101;-47
2021/12/16 04:16:45;;;;;;;;;;;22.20;31.80;;;;;;489537;242;1317;-47
2021/12/16 04:18:47;;;;;;;;;;;22.20;31.60;;;;;;490100;242;2111;-47
2021/12/16 04:20:48;;;;;;;;;;;22.30;31.40;;;;;;490116;242;1054;-46
2021/12/16 04:22:51;;;;;;;;;;;22.30;31.40;;;;;;490120;242;1034;-46
2021/12/16 04:24:51;;;;;;;;;;;22.20;31.60;;;;;;489930;242;1343;-47
2021/12/16 04:26:52;;;;;;;;;;;21.90;31.90;;;;;;489622;242;1375;-46
2021/12/16 04:28:53;;;;;;;;;;;21.70;32.10;;;;;;490012;242;1059;-47
2021/12/16 04:30:55;;;;;;;;;;;21.70;32.40;;;;;;489606;242;1307;-47
2021/12/16 04:32:56;;;;;;;;;;;21.60;32.50;;;;;;489642;242;1052;-47
2021/12/16 04:34:57;;;;;;;;;;;21.50;32.60;;;;;;490089;242;1008;-47
2021/12/16 04:36:59;;;;;;;;;;;21.50;32.70;;;;;;490017;242;1327;-46
2021/12/16 04:39:00;;;;;;;;;;;21.40;32.80;;;;;;490111;242;2117;-46
2021/12/16 04:41:01;;;;;;;;;;;21.40;32.80;;;;;;489826;242;1336;-46
2021/12/16 04:43:03;;;;;;;;;;;21.40;32.80;;;;;;490027;242;1188;-47
2021/12/16 04:45:04;;;;;;;;;;;21.40;32.80;;;;;;489819;242;1272;-47
2021/12/16 04:47:05;;;;;;;;;;;21.40;32.90;;;;;;489636;242;1170;-46
2021/12/16 04:49:07;;;;;;;;;;;21.30;32.90;;;;;;490144;242;1190;-46
2021/12/16 04:51:08;;;;;;;;;;;21.30;33.00;;;;;;490050;242;1391;-47
2021/12/16 04:53:09;;;;;;;;;;;21.30;33.00;;;;;;489838;242;1240;-46
2021/12/16 04:55:10;;;;;;;;;;;21.20;33.00;;;;;;490185;242;1313;-46
2021/12/16 04:57:12;;;;;;;;;;;21.30;33.00;;;;;;489952;242;1250;-46
2021/12/16 04:59:13;;;;;;;;;;;21.30;33.00;;;;;;489625;242;2119;-46
2021/12/16 05:01:15;;;;;;;;;;;21.30;33.10;;;;;;489715;242;1222;-46
2021/12/16 05:03:16;;;;;;;;;;;21.30;33.10;;;;;;489651;242;1218;-46
2021/12/16 05:05:17;;;;;;;;;;;21.20;33.00;;;;;;489666;242;1063;-46
2021/12/16 05:07:19;;;;;;;;;;;21.20;33.00;;;;;;490105;242;1218;-47
2021/12/16 05:09:55;;;;;;;;;;;21.20;33.10;;;;;;490147;242;1024;-46
2021/12/16 05:11:30;;;;;;;;;;;21.20;33.10;;;;;;490091;242;1997;-46
2021/12/16 05:13:31;;;;;;;;;;;21.20;33.20;;;;;;490074;242;2103;-46
2021/12/16 05:15:34;;;;;;;;;;;21.10;33.20;;;;;;490102;242;1029;-46
2021/12/16 05:17:37;;;;;;;;;;;21.20;33.10;;;;;;489697;242;2195;-46
2021/12/16 05:19:34;;;;;;;;;;;21.20;33.10;;;;;;489836;242;3215;-46
2021/12/16 05:21:46;;;;;;;;;;;21.20;33.10;;;;;;489756;242;1135;-46
2021/12/16 05:26:16;;;;;;;;;;;21.20;33.10;;;;;;489731;241;1055;-46
2021/12/16 05:28:10;;;;;;;;;;;21.20;33.00;;;;;;489783;242;2122;-46
2021/12/16 05:30:11;;;;;;;;;;;21.50;32.70;;;;;;489653;242;1029;-47
2021/12/16 05:32:13;;;;;;;;;;;21.70;32.40;;;;;;489536;242;1282;-47
2021/12/16 05:34:14;;;;;;;;;;;21.90;32.10;;;;;;489867;242;1130;-47
2021/12/16 05:36:15;;;;;;;;;;;22.00;31.90;;;;;;490091;242;1185;-47
2021/12/16 05:38:17;;;;;;;;;;;22.10;31.60;;;;;;489620;242;2126;-46
2021/12/16 05:40:18;;;;;;;;;;;22.20;31.50;;;;;;489930;242;1082;-47
2021/12/16 05:42:19;;;;;;;;;;;22.30;31.40;;;;;;489382;242;1290;-46
2021/12/16 05:44:21;;;;;;;;;;;22.30;31.30;;;;;;489683;242;1121;-47
2021/12/16 05:46:22;;;;;;;;;;;22.30;31.30;;;;;;489535;242;1196;-47
2021/12/16 05:48:23;;;;;;;;;;;22.10;31.60;;;;;;489881;242;1211;-46
2021/12/16 05:50:25;;;;;;;;;;;21.90;31.90;;;;;;490067;242;1041;-47
2021/12/16 05:52:26;;;;;;;;;;;21.80;32.10;;;;;;490008;242;1129;-47
2021/12/16 05:54:28;;;;;;;;;;;21.70;32.20;;;;;;490003;242;1229;-47
2021/12/16 05:56:29;;;;;;;;;;;21.60;32.40;;;;;;489590;242;1252;-46
2021/12/16 05:58:30;;;;;;;;;;;21.60;32.40;;;;;;489446;242;2118;-47
2021/12/16 06:00:31;;;;;;;;;;;21.50;32.50;;;;;;489406;242;1208;-46
2021/12/16 06:02:33;;;;;;;;;;;21.50;32.60;;;;;;489616;242;1195;-46
2021/12/16 06:04:34;;;;;;;;;;;21.40;32.70;;;;;;489419;242;1059;-46
2021/12/16 06:06:35;;;;;;;;;;;21.40;32.80;;;;;;489650;242;1692;-46
2021/12/16 06:08:37;;;;;;;;;;;21.40;32.80;;;;;;489824;242;1145;-47
2021/12/16 06:13:01;;;;;;;;;;;21.30;32.90;;;;;;489748;242;1377;-46
2021/12/16 06:15:17;;;;;;;;;;;21.30;32.90;;;;;;489468;242;1043;-46
2021/12/16 06:26:31;;;;;;;;;;;21.20;32.90;;;;;;489508;241;1061;-46
2021/12/16 06:28:27;;;;;;;;;;;21.30;32.90;;;;;;489596;242;2173;-46
2021/12/16 06:30:28;;;;;;;;;;;21.20;32.90;;;;;;489513;242;1054;-46
2021/12/16 06:32:29;;;;;;;;;;;21.20;33.00;;;;;;489546;242;1179;-46
2021/12/16 06:34:31;;;;;;;;;;;21.20;33.00;;;;;;489439;242;1065;-47
2021/12/16 06:36:32;;;;;;;;;;;21.20;33.00;;;;;;489358;242;1166;-46
2021/12/16 06:38:33;;;;;;;;;;;21.40;32.70;;;;;;489452;242;2141;-46
2021/12/16 06:40:35;;;;;;;;;;;21.60;32.30;;;;;;489889;242;1245;-47
2021/12/16 06:42:38;;;;;;;;;;;21.80;32.00;;;;;;489520;242;1242;-46
2021/12/16 06:44:42;;;;;;;;;;;22.00;31.80;;;;;;489846;242;1386;-47
2021/12/16 06:46:41;;;;;;;;;;;22.10;31.60;;;;;;489381;242;2249;-47
2021/12/16 06:48:43;;;;;;;;;;;22.20;31.40;;;;;;489412;242;1343;-47
2021/12/16 06:50:47;;;;;;;;;;;22.20;31.20;;;;;;489681;242;2446;-47
2021/12/16 06:52:48;;;;;;;;;;;22.30;31.20;;;;;;489701;242;2315;-47
2021/12/16 06:55:00;;;;;;;;;;;22.40;31.10;;;;;;489415;242;1987;-47
2021/12/16 06:57:03;;;;;;;;;;;22.50;31.00;;;;;;489439;242;2188;-46
2021/12/16 06:59:06;;;;;;;;;;;22.40;31.10;;;;;;489512;242;2282;-46
2021/12/16 07:01:09;;;;;;;;;;;22.20;31.30;;;;;;489284;242;2194;-46
2021/12/16 07:03:16;;;;;;;;;;;22.00;31.70;;;;;;489620;242;2157;-46
2021/12/16 07:05:06;;;;;;;;;;;21.80;31.90;;;;;;489509;242;2189;-46
2021/12/16 07:07:08;;;;;;;;;;;21.60;32.10;;;;;;489193;242;1159;-47
2021/12/16 07:09:13;;;;;;;;;;;21.60;32.20;;;;;;489249;242;1253;-47
2021/12/16 07:11:11;;;;;;;;;;;21.60;32.40;;;;;;489360;242;1894;-46
2021/12/16 07:13:17;;;;;;;;;;;21.50;32.40;;;;;;489385;242;1517;-46
2021/12/16 07:15:13;;;;;;;;;;;21.40;32.50;;;;;;489381;242;2076;-47
2021/12/16 07:17:15;;;;;;;;;;;21.40;32.60;;;;;;489004;242;1284;-45
2021/12/16 07:19:16;;;;;;;;;;;21.40;32.60;;;;;;489236;242;2202;-46
2021/12/16 07:21:17;;;;;;;;;;;21.40;32.60;;;;;;489165;242;1240;-46
2021/12/16 07:23:19;;;;;;;;;;;21.30;32.60;;;;;;489451;242;1192;-46
2021/12/16 07:25:20;;;;;;;;;;;21.30;32.70;;;;;;489210;242;1079;-46
2021/12/16 07:27:21;;;;;;;;;;;21.30;32.70;;;;;;489113;242;1221;-46
2021/12/16 07:29:23;;;;;;;;;;;21.30;32.70;;;;;;489225;242;1057;-46
2021/12/16 07:31:24;;;;;;;;;;;21.40;32.70;;;;;;489204;242;1291;-46
2021/12/16 07:33:25;;;;;;;;;;;21.30;32.70;;;;;;489069;242;1261;-46
2021/12/16 07:35:26;;;;;;;;;;;21.30;32.70;;;;;;489312;242;1104;-46
2021/12/16 07:37:28;;;;;;;;;;;21.40;32.80;;;;;;489122;242;1461;-46
2021/12/16 07:39:36;;;;;;;;;;;21.30;32.80;;;;;;489206;242;2885;-46
2021/12/16 07:41:32;;;;;;;;;;;21.30;32.70;;;;;;489223;242;2386;-46
2021/12/16 07:43:54;;;;;;;;;;;21.30;32.70;;;;;;489155;242;2004;-46
2021/12/16 07:45:43;;;;;;;;;;;21.30;32.80;;;;;;489329;242;2384;-46
2021/12/16 07:47:45;;;;;;;;;;;21.30;32.70;;;;;;489049;242;1429;-47
2021/12/16 07:49:46;;;;;;;;;;;21.30;32.70;;;;;;489192;242;1140;-46
2021/12/16 07:51:47;;;;;;;;;;;21.30;32.80;;;;;;488934;242;1196;-46
2021/12/16 07:53:49;;;;;;;;;;;21.30;32.90;;;;;;489033;242;1108;-46
2021/12/16 07:55:50;;;;;;;;;;;21.30;32.80;;;;;;489027;242;1274;-46
2021/12/16 07:57:51;;;;;;;;;;;21.30;32.80;;;;;;489053;242;1158;-46
2021/12/16 07:59:52;;;;;;;;;;;21.30;32.80;;;;;;488993;242;2204;-46
2021/12/16 08:01:54;;;;;;;;;;;21.30;32.80;;;;;;489007;242;1219;-46
2021/12/16 08:03:55;;;;;;;;;;;21.20;32.80;;;;;;489001;242;1240;-47
2021/12/16 08:05:59;;;;;;;;;;;21.30;32.90;;;;;;488891;242;1476;-46
2021/12/16 08:07:58;;;;;;;;;;;21.30;32.90;;;;;;488875;242;1803;-46
2021/12/16 08:10:00;;;;;;;;;;;21.20;32.90;;;;;;488965;242;1194;-47
2021/12/16 08:12:01;;;;;;;;;;;21.30;32.90;;;;;;489025;242;1260;-47
2021/12/16 08:14:03;;;;;;;;;;;21.20;32.80;;;;;;489090;242;1178;-46
2021/12/16 08:16:04;;;;;;;;;;;21.20;32.80;;;;;;488780;242;2074;-46
2021/12/16 08:18:05;;;;;;;;;;;21.20;32.90;;;;;;489025;242;1152;-46
2021/12/16 08:20:07;;;;;;;;;;;21.30;32.90;;;;;;489073;242;2181;-46
2021/12/16 08:22:08;;;;;;;;;;;21.30;32.90;;;;;;488953;242;1312;-46
2021/12/16 08:24:09;;;;;;;;;;;21.20;32.90;;;;;;488903;242;964;-46
2021/12/16 08:26:10;;;;;;;;;;;21.20;32.90;;;;;;488878;242;1237;-46
2021/12/16 08:28:12;;;;;;;;;;;21.20;33.00;;;;;;488891;242;1269;-46
2021/12/16 08:30:13;;;;;;;;;;;21.20;33.00;;;;;;488865;242;1054;-46
2021/12/16 08:32:14;;;;;;;;;;;21.20;33.00;;;;;;488846;242;1132;-46
2021/12/16 08:34:16;;;;;;;;;;;21.20;33.00;;;;;;488876;242;1234;-46
2021/12/16 08:36:17;;;;;;;;;;;21.20;33.00;;;;;;488808;242;1308;-46
2021/12/16 08:38:18;;;;;;;;;;;21.20;33.00;;;;;;488827;242;1062;-46
2021/12/16 08:40:20;;;;;;;;;;;21.20;33.00;;;;;;489074;242;2177;-46
2021/12/16 08:42:21;;;;;;;;;;;21.20;33.00;;;;;;489006;242;1210;-46
2021/12/16 08:44:22;;;;;;;;;;;21.20;33.00;;;;;;489008;242;1354;-47
2021/12/16 08:46:23;;;;;;;;;;;21.20;33.00;;;;;;488956;242;1231;-46
2021/12/16 08:48:26;;;;;;;;;;;21.20;32.90;;;;;;488969;241;1190;-46
2021/12/16 08:50:27;;;;;;;;;;;21.20;32.90;;;;;;489664;242;1137;-47
2021/12/16 08:52:28;;;;;;;;;;;21.20;33.00;;;;;;489585;242;1046;-46
2021/12/16 08:54:30;;;;;;;;;;;21.10;33.00;;;;;;488793;242;1233;-46
2021/12/16 08:56:31;;;;;;;;;;;21.20;33.00;;;;;;488735;242;1291;-46
2021/12/16 08:58:32;;;;;;;;;;;21.20;33.00;;;;;;488865;242;1293;-46
2021/12/16 09:00:34;;;;;;;;;;;21.10;33.00;;;;;;488968;242;2130;-47
2021/12/16 09:02:35;;;;;;;;;;;21.20;33.10;;;;;;489252;242;1188;-47
2021/12/16 09:04:37;;;;;;;;;;;21.20;33.00;;;;;;488865;242;1329;-46
2021/12/16 09:06:38;;;;;;;;;;;21.20;33.00;;;;;;488944;242;1206;-46
2021/12/16 09:08:39;;;;;;;;;;;21.10;33.00;;;;;;488986;242;1306;-47
2021/12/16 09:10:41;;;;;;;;;;;21.20;33.10;;;;;;489119;242;1362;-46
2021/12/16 09:12:52;;;;;;;;;;;21.10;33.10;;;;;;489152;242;1284;-46
2021/12/16 09:14:51;;;;;;;;;;;21.10;33.10;;;;;;489047;242;1347;-47
2021/12/16 09:16:52;;;;;;;;;;;21.10;33.10;;;;;;488794;242;1273;-46
2021/12/16 09:18:55;;;;;;;;;;;21.10;33.10;;;;;;488884;242;1314;-46
2021/12/16 09:20:55;;;;;;;;;;;21.10;33.00;;;;;;489005;242;2235;-47
2021/12/16 09:22:56;;;;;;;;;;;21.10;33.10;;;;;;489134;242;1071;-47
2021/12/16 09:24:58;;;;;;;;;;;21.10;33.10;;;;;;488939;242;1100;-46
2021/12/16 09:26:59;;;;;;;;;;;21.10;33.00;;;;;;488859;242;1180;-46
2021/12/16 09:29:00;;;;;;;;;;;21.10;33.10;;;;;;488823;242;1226;-47
2021/12/16 09:31:04;;;;;;;;;;;21.10;33.20;;;;;;488730;242;1236;-46
2021/12/16 09:33:03;;;;;;;;;;;21.10;33.20;;;;;;488828;242;1901;-46
2021/12/16 09:35:04;;;;;;;;;;;21.10;33.10;;;;;;489054;242;1245;-46
2021/12/16 09:37:06;;;;;;;;;;;21.10;33.10;;;;;;488788;242;1385;-46
2021/12/16 09:39:07;;;;;;;;;;;21.10;33.10;;;;;;488831;242;1114;-46
2021/12/16 09:41:08;;;;;;;;;;;21.10;33.10;;;;;;488951;242;2127;-46
2021/12/16 09:43:10;;;;;;;;;;;21.10;33.10;;;;;;488933;242;1248;-46
2021/12/16 09:45:12;;;;;;;;;;;21.10;33.20;;;;;;488925;242;1283;-46
2021/12/16 09:47:12;;;;;;;;;;;21.00;33.20;;;;;;488814;242;2209;-46
2021/12/16 09:49:13;;;;;;;;;;;21.00;33.20;;;;;;488886;242;1170;-47
2021/12/16 09:51:16;;;;;;;;;;;21.00;33.10;;;;;;488926;242;1226;-46
2021/12/16 09:53:16;;;;;;;;;;;21.10;33.20;;;;;;488899;242;2283;-46
2021/12/16 09:55:17;;;;;;;;;;;21.10;33.20;;;;;;489009;242;1081;-47
2021/12/16 09:57:19;;;;;;;;;;;21.10;33.10;;;;;;489055;242;1342;-46
2021/12/16 09:59:20;;;;;;;;;;;21.00;33.10;;;;;;488892;242;1078;-47
2021/12/16 10:01:21;;;;;;;;;;;21.10;33.20;;;;;;488709;242;2252;-46
2021/12/16 10:03:23;;;;;;;;;;;21.00;33.10;;;;;;488801;242;1169;-46
2021/12/16 10:05:24;;;;;;;;;;;21.10;33.10;;;;;;488714;242;1226;-46
2021/12/16 10:07:27;;;;;;;;;;;21.10;33.20;;;;;;488680;242;1182;-46
2021/12/16 10:09:27;;;;;;;;;;;21.10;33.10;;;;;;488949;242;2248;-46
2021/12/16 10:11:28;;;;;;;;;;;21.00;33.10;;;;;;488739;242;1212;-46
2021/12/16 10:13:41;;;;;;;;;;;21.10;33.20;;;;;;488836;242;1244;-47
2021/12/16 10:17:55;;;;;;;;;;;21.50;32.50;;;;;;489011;241;1210;-46
2021/12/16 10:19:56;;;;;;;;;;;21.70;32.10;;;;;;488931;242;2197;-46
2021/12/16 10:21:58;;;;;;;;;;;21.80;31.90;;;;;;488846;242;1179;-47
2021/12/16 10:23:59;;;;;;;;;;;21.90;31.70;;;;;;488876;242;1125;-47
2021/12/16 10:26:00;;;;;;;;;;;22.00;31.50;;;;;;488913;242;1188;-47
2021/12/16 10:28:02;;;;;;;;;;;22.10;31.40;;;;;;488825;242;1188;-47
2021/12/16 10:30:04;;;;;;;;;;;22.20;31.20;;;;;;488933;242;1102;-47
2021/12/16 10:32:05;;;;;;;;;;;22.20;31.20;;;;;;488922;242;1330;-47
2021/12/16 10:34:06;;;;;;;;;;;22.30;31.20;;;;;;488931;242;1221;-47
2021/12/16 10:36:07;;;;;;;;;;;22.30;31.00;;;;;;488656;242;1182;-47
2021/12/16 10:38:09;;;;;;;;;;;22.40;31.00;;;;;;488716;242;1478;-47
2021/12/16 10:40:10;;;;;;;;;;;22.40;30.90;;;;;;488836;242;2118;-47
2021/12/16 10:42:17;;;;;;;;;;;22.40;30.90;;;;;;488828;242;1201;-46
2021/12/16 10:44:14;;;;;;;;;;;22.40;30.80;;;;;;488998;242;1321;-47
2021/12/16 10:46:14;;;;;;;;;;;22.50;30.80;;;;;;488830;242;1614;-46
2021/12/16 10:48:15;;;;;;;;;;;22.50;30.70;;;;;;488747;242;1252;-46
2021/12/16 10:50:17;;;;;;;;;;;22.60;30.70;;;;;;488721;242;1516;-47
2021/12/16 10:52:18;;;;;;;;;;;22.60;30.60;;;;;;488839;242;1346;-47
2021/12/16 10:54:20;;;;;;;;;;;22.60;30.60;;;;;;489328;242;1080;-47
2021/12/16 10:56:21;;;;;;;;;;;22.70;30.60;;;;;;489674;242;1167;-47
2021/12/16 10:58:22;;;;;;;;;;;22.70;30.50;;;;;;489227;242;1098;-47
2021/12/16 11:00:23;;;;;;;;;;;22.70;30.60;;;;;;488889;242;2201;-47
2021/12/16 11:02:25;;;;;;;;;;;22.70;30.50;;;;;;488927;242;1218;-47
2021/12/16 11:04:26;;;;;;;;;;;22.70;30.40;;;;;;488918;242;1152;-47
2021/12/16 11:06:27;;;;;;;;;;;22.80;30.40;;;;;;488927;242;1230;-46
2021/12/16 11:08:29;;;;;;;;;;;22.80;30.40;;;;;;488954;242;1107;-46
2021/12/16 11:10:30;;;;;;;;;;;22.80;30.40;;;;;;488788;242;1067;-46
2021/12/16 11:12:31;;;;;;;;;;;22.90;30.30;;;;;;488850;242;1281;-47
2021/12/16 11:14:33;;;;;;;;;;;22.90;30.30;;;;;;488906;242;1220;-47
2021/12/16 11:16:34;;;;;;;;;;;22.90;30.40;;;;;;489077;242;1268;-46
2021/12/16 11:18:37;;;;;;;;;;;22.80;30.50;;;;;;489064;242;1078;-47
2021/12/16 11:20:37;;;;;;;;;;;22.70;30.60;;;;;;488977;242;2177;-46
2021/12/16 11:22:38;;;;;;;;;;;22.40;31.00;;;;;;488896;242;1264;-46
2021/12/16 11:24:39;;;;;;;;;;;22.20;31.30;;;;;;488995;242;1060;-46
2021/12/16 11:26:43;;;;;;;;;;;22.20;31.50;;;;;;489094;242;1165;-46
2021/12/16 11:28:42;;;;;;;;;;;22.00;31.70;;;;;;489044;242;2269;-46
2021/12/16 11:30:44;;;;;;;;;;;22.00;31.90;;;;;;488998;242;1338;-46
2021/12/16 11:32:45;;;;;;;;;;;21.90;31.90;;;;;;489167;242;1160;-46
2021/12/16 11:34:46;;;;;;;;;;;21.80;32.00;;;;;;488999;242;1111;-46
2021/12/16 11:36:52;;;;;;;;;;;21.80;32.10;;;;;;488922;242;1315;-47
2021/12/16 11:38:49;;;;;;;;;;;21.80;32.20;;;;;;489068;242;2258;-46
2021/12/16 11:40:50;;;;;;;;;;;21.70;32.30;;;;;;488846;242;2189;-46
2021/12/16 11:42:51;;;;;;;;;;;21.70;32.30;;;;;;488934;242;1245;-46
2021/12/16 11:44:53;;;;;;;;;;;21.70;32.40;;;;;;488899;242;1341;-46
2021/12/16 11:46:54;;;;;;;;;;;21.70;32.40;;;;;;488868;242;1247;-46
2021/12/16 11:48:55;;;;;;;;;;;21.70;32.40;;;;;;488902;242;1266;-46
2021/12/16 11:50:57;;;;;;;;;;;21.70;32.30;;;;;;488858;242;1243;-46
2021/12/16 11:52:59;;;;;;;;;;;21.60;32.40;;;;;;489161;242;1163;-47
2021/12/16 11:54:59;;;;;;;;;;;21.60;32.50;;;;;;489066;242;2027;-46
2021/12/16 11:57:01;;;;;;;;;;;21.60;32.50;;;;;;488878;242;1259;-46
2021/12/16 11:59:02;;;;;;;;;;;21.60;32.60;;;;;;488908;242;1236;-47
2021/12/16 12:01:03;;;;;;;;;;;21.50;32.60;;;;;;488826;242;2185;-47
2021/12/16 12:03:05;;;;;;;;;;;21.50;32.60;;;;;;488899;242;1097;-47
2021/12/16 12:05:06;;;;;;;;;;;21.50;32.70;;;;;;488864;242;1238;-46
2021/12/16 12:07:07;;;;;;;;;;;21.50;32.70;;;;;;488859;242;1163;-46
2021/12/16 12:09:09;;;;;;;;;;;21.50;32.70;;;;;;488723;242;1197;-46
2021/12/16 12:11:10;;;;;;;;;;;21.50;32.80;;;;;;488892;242;1129;-46
2021/12/16 12:13:11;;;;;;;;;;;21.40;32.80;;;;;;488972;242;1291;-47
2021/12/16 12:15:13;;;;;;;;;;;21.40;32.80;;;;;;488925;242;1076;-47
2021/12/16 12:17:16;;;;;;;;;;;21.40;32.80;;;;;;489064;242;1071;-46
2021/12/16 12:19:15;;;;;;;;;;;21.40;32.80;;;;;;489410;242;1280;-46
2021/12/16 12:21:16;;;;;;;;;;;21.40;32.90;;;;;;489237;242;2225;-46
2021/12/16 12:23:18;;;;;;;;;;;21.40;32.90;;;;;;489107;242;1344;-46
2021/12/16 12:25:19;;;;;;;;;;;21.40;32.80;;;;;;488893;242;1110;-46
2021/12/16 12:27:21;;;;;;;;;;;21.40;32.90;;;;;;488852;242;1254;-46
2021/12/16 12:29:22;;;;;;;;;;;21.40;32.90;;;;;;488930;242;1182;-46
2021/12/16 12:31:23;;;;;;;;;;;21.40;32.80;;;;;;488932;242;1304;-46
2021/12/16 12:33:25;;;;;;;;;;;21.40;32.90;;;;;;488855;242;1050;-46
2021/12/16 12:35:26;;;;;;;;;;;21.30;32.90;;;;;;488862;242;1093;-46
2021/12/16 12:37:27;;;;;;;;;;;21.30;33.00;;;;;;488896;242;1408;-47
2021/12/16 12:39:29;;;;;;;;;;;21.30;33.00;;;;;;489019;242;1112;-46
2021/12/16 12:41:30;;;;;;;;;;;21.30;33.00;;;;;;488716;242;2177;-46
2021/12/16 12:43:33;;;;;;;;;;;21.30;33.00;;;;;;488801;242;1213;-46
2021/12/16 12:45:34;;;;;;;;;;;21.30;33.00;;;;;;488854;242;2082;-46
2021/12/16 12:47:35;;;;;;;;;;;21.30;33.00;;;;;;488931;242;2164;-46
2021/12/16 12:49:36;;;;;;;;;;;21.20;33.00;;;;;;488827;242;1244;-46
2021/12/16 12:51:37;;;;;;;;;;;21.30;33.00;;;;;;489056;242;1234;-47
2021/12/16 12:53:38;;;;;;;;;;;21.30;33.00;;;;;;489000;242;1080;-46
2021/12/16 12:55:40;;;;;;;;;;;21.30;33.00;;;;;;488822;242;1211;-46
2021/12/16 12:57:41;;;;;;;;;;;21.30;33.00;;;;;;488852;242;1164;-46
2021/12/16 12:59:42;;;;;;;;;;;21.20;33.10;;;;;;488762;242;1068;-46
2021/12/16 13:01:44;;;;;;;;;;;21.30;33.10;;;;;;488699;242;2185;-46
2021/12/16 13:03:46;;;;;;;;;;;21.30;33.10;;;;;;488914;242;1288;-46
2021/12/16 13:05:47;;;;;;;;;;;21.30;33.20;;;;;;488935;242;1332;-46
2021/12/16 13:07:49;;;;;;;;;;;21.30;33.10;;;;;;488970;242;1185;-46
2021/12/16 13:09:50;;;;;;;;;;;21.20;33.10;;;;;;489091;242;1089;-46
2021/12/16 13:11:51;;;;;;;;;;;21.20;33.20;;;;;;488724;242;1185;-46
2021/12/16 13:13:54;;;;;;;;;;;21.20;33.10;;;;;;488892;242;1269;-46
2021/12/16 13:16:02;;;;;;;;;;;21.20;33.20;;;;;;488808;242;1381;-46
2021/12/16 13:25:02;;;;;;;;;;;21.20;33.20;;;;;;488888;241;1057;-46
2021/12/16 13:26:50;;;;;;;;;;;21.20;33.20;;;;;;489135;242;2225;-46
2021/12/16 13:28:56;;;;;;;;;;;21.20;33.30;;;;;;488915;242;1379;-47
2021/12/16 13:30:57;;;;;;;;;;;21.20;33.30;;;;;;489001;242;2177;-46
2021/12/16 13:32:53;;;;;;;;;;;21.10;33.30;;;;;;489076;242;2212;-46
2021/12/16 13:34:59;;;;;;;;;;;21.20;33.40;;;;;;488895;242;1215;-46